Time;durP1;ratioP1;P1;durP2;ratioP2;P2;SDS_P1;SDS_P2;PMS_P1;PMS_P2;Temp;Humidity;BMP_temperature;BMP_pressure;BME280_temperature;BME280_humidity;BME280_pressure;Samples;Min_cycle;Max_cycle;Signal;HPM_P1;HPM_P2
2022/09/20 07:18:34;;;;;;;9.57;2.20;;;;;;;13.02;67.84;97152.91;2084393;28;20569;-67
2022/09/20 07:19:36;;;;;;;11.52;2.20;;;;;;;12.76;69.05;97151.47;2078009;28;20449;-67
2022/09/20 07:20:38;;;;;;;9.15;2.20;;;;;;;12.97;69.09;97154.91;2076062;28;20247;-67
2022/09/20 07:21:39;;;;;;;9.02;2.30;;;;;;;13.22;68.56;97155.44;2074848;28;20227;-67
2022/09/20 07:26:30;;;;;;;12.00;3.80;;;;;;;15.12;64.81;97165.22;2083100;28;20551;-67
2022/09/20 07:27:31;;;;;;;10.73;2.72;;;;;;;14.98;63.93;97151.03;2082327;28;20715;-67
2022/09/20 07:38:00;;;;;;;14.30;3.30;;;;;;;12.97;69.68;97173.25;2058497;27;1271287;-67
2022/09/20 07:43:32;;;;;;;11.18;3.05;;;;;;;12.28;72.25;97148.34;2105826;27;20561;-67
2022/09/20 07:44:33;;;;;;;12.93;3.20;;;;;;;12.48;72.37;97169.31;2099221;28;20565;-67
2022/09/20 07:48:32;;;;;;;15.07;3.60;;;;;;;13.03;70.75;97179.06;2093737;27;20675;-67
2022/09/20 07:49:38;;;;;;;20.27;3.65;;;;;;;13.36;69.41;97173.16;2078130;28;20320;-67
2022/09/20 07:52:39;;;;;;;13.10;4.80;;;;;;;13.95;66.33;97157.22;2084995;28;20577;-67
2022/09/20 07:53:40;;;;;;;19.73;5.43;;;;;;;14.18;66.41;97182.34;2082758;28;20212;-67
2022/09/20 07:54:42;;;;;;;23.58;4.85;;;;;;;14.74;64.88;97169.00;2081371;28;20228;-67
2022/09/20 07:55:55;;;;;;;12.73;3.78;;;;;;;15.12;63.23;97163.44;2078456;28;20232;-67
2022/09/20 07:56:57;;;;;;;17.58;3.75;;;;;;;15.39;61.30;97176.00;2074668;28;20236;-67
2022/09/20 07:57:58;;;;;;;9.70;3.55;;;;;;;16.32;60.16;97183.91;2072534;28;20229;-67
2022/09/20 07:59:00;;;;;;;10.60;2.88;;;;;;;17.08;58.09;97180.19;2076911;28;20691;-67
2022/09/20 08:00:04;;;;;;;37.83;4.25;;;;;;;16.25;58.80;97186.06;2074378;28;20309;-67
2022/09/20 08:01:08;;;;;;;13.77;3.50;;;;;;;16.29;59.01;97189.34;2076329;28;20225;-67
2022/09/20 08:02:13;;;;;;;12.30;3.67;;;;;;;16.52;58.12;97181.84;2076009;28;20190;-67
2022/09/20 08:07:03;;;;;;;16.35;3.55;;;;;;;14.24;63.46;97194.28;2075951;27;21262;-67
2022/09/20 08:08:05;;;;;;;13.45;3.70;;;;;;;14.98;62.37;97181.72;2070104;28;20965;-67
2022/09/20 08:09:12;;;;;;;15.02;2.80;;;;;;;14.81;62.37;97187.91;2071251;28;20771;-67
2022/09/20 08:10:14;;;;;;;18.58;2.92;;;;;;;14.68;63.18;97185.91;2063103;28;20239;-67
2022/09/20 08:13:54;;;;;;;9.48;2.67;;;;;;;14.91;62.90;97196.16;2094419;27;20572;-67
2022/09/20 08:15:09;;;;;;;6.20;1.88;;;;;;;15.10;61.79;97196.84;2075198;28;20218;-67
2022/09/20 08:16:13;;;;;;;17.08;2.20;;;;;;;15.17;61.39;97202.63;2073603;28;20203;-67
2022/09/20 08:17:15;;;;;;;7.07;2.20;;;;;;;14.42;62.57;97200.38;2073202;28;20348;-67
2022/09/20 08:18:16;;;;;;;15.80;2.75;;;;;;;15.11;60.56;97197.69;2072492;28;20294;-67
2022/09/20 08:19:20;;;;;;;17.58;2.30;;;;;;;14.88;61.25;97194.53;2072383;28;20219;-67
2022/09/20 08:20:26;;;;;;;16.33;3.03;;;;;;;14.81;61.33;97201.06;2073930;28;20380;-67
2022/09/20 08:33:05;;;;;;;10.77;1.80;;;;;;;15.93;57.74;97195.81;2066894;28;20182;-67
2022/09/20 08:34:09;;;;;;;7.68;1.35;;;;;;;16.23;55.56;97201.09;2066372;28;20203;-67
2022/09/20 08:35:12;;;;;;;12.50;1.92;;;;;;;16.11;56.00;97191.28;2070941;28;20294;-67
2022/09/20 08:36:16;;;;;;;8.55;1.73;;;;;;;16.44;54.43;97187.59;2072586;28;20221;-67
2022/09/20 08:37:18;;;;;;;8.70;1.70;;;;;;;16.73;54.79;97192.91;2073940;28;20309;-67
2022/09/20 08:38:21;;;;;;;9.55;1.73;;;;;;;16.78;54.76;97180.28;2070326;28;20290;-67
2022/09/20 08:39:42;;;;;;;19.02;1.98;;;;;;;17.55;52.72;97198.41;2069570;28;20248;-67
2022/09/20 08:41:10;;;;;;;6.10;1.42;;;;;;;17.98;50.48;97200.94;2073927;28;20271;-67
2022/09/20 08:42:17;;;;;;;12.98;2.45;;;;;;;16.93;53.40;97195.19;2074210;28;20225;-67
2022/09/20 08:43:20;;;;;;;12.55;1.52;;;;;;;17.86;52.39;97204.34;2074544;28;20286;-67
2022/09/20 08:44:32;;;;;;;11.25;1.60;;;;;;;17.98;52.71;97200.94;2075157;28;20280;-66
2022/09/20 08:45:35;;;;;;;4.32;1.50;;;;;;;17.99;51.39;97200.00;2074792;28;20284;-67
2022/09/20 08:47:08;;;;;;;8.25;1.88;;;;;;;18.70;49.75;97208.44;2073485;28;20228;-67
2022/09/20 08:48:15;;;;;;;10.45;1.50;;;;;;;18.67;48.90;97203.34;2074165;28;20838;-66
2022/09/20 08:49:27;;;;;;;6.57;1.50;;;;;;;17.50;51.54;97190.78;2073416;28;20742;-67
2022/09/20 08:50:29;;;;;;;11.27;1.67;;;;;;;17.65;51.86;97186.31;2072793;28;20288;-67
2022/09/20 08:51:34;;;;;;;4.55;1.25;;;;;;;17.61;51.33;97177.72;2073548;28;20210;-67
2022/09/20 08:52:38;;;;;;;10.88;1.70;;;;;;;18.04;50.54;97182.03;2075470;28;20198;-67
2022/09/20 08:53:51;;;;;;;11.88;2.50;;;;;;;18.23;49.29;97194.00;2070689;28;20249;-67
2022/09/20 08:54:58;;;;;;;11.07;1.60;;;;;;;17.99;48.90;97184.13;2071918;28;20249;-67
2022/09/20 08:56:00;;;;;;;8.18;2.28;;;;;;;16.63;51.55;97196.09;2072617;28;20278;-66
2022/09/20 08:57:08;;;;;;;11.65;1.65;;;;;;;15.97;54.73;97198.22;2072443;28;20237;-67
2022/09/20 08:58:12;;;;;;;5.40;1.65;;;;;;;15.72;55.52;97195.22;2074402;28;20230;-67
2022/09/20 08:59:19;;;;;;;9.95;1.73;;;;;;;16.49;53.64;97199.56;2071243;28;20290;-66
2022/09/20 09:00:32;;;;;;;9.32;1.50;;;;;;;16.45;53.31;97192.75;2074576;28;20237;-66
2022/09/20 09:01:35;;;;;;;7.05;1.55;;;;;;;15.72;55.88;97192.59;2075309;28;20198;-67
2022/09/20 09:02:38;;;;;;;11.63;1.90;;;;;;;15.63;56.37;97192.19;2074995;28;20701;-66
2022/09/20 09:03:39;;;;;;;5.47;1.85;;;;;;;15.54;57.10;97184.81;2073765;28;20195;-67
2022/09/20 09:04:42;;;;;;;10.35;1.58;;;;;;;14.76;58.47;97192.56;2073665;28;20352;-66
2022/09/20 09:05:47;;;;;;;9.35;1.85;;;;;;;14.03;60.47;97199.69;2076148;28;20779;-66
2022/09/20 09:06:50;;;;;;;7.70;1.98;;;;;;;13.23;63.41;97182.53;2072809;28;20542;-66
2022/09/20 09:07:51;;;;;;;7.30;1.70;;;;;;;13.70;62.57;97187.31;2073627;28;20289;-67
2022/09/20 09:08:56;;;;;;;15.60;2.00;;;;;;;13.74;62.25;97198.50;2076275;28;20206;-67
2022/09/20 09:09:59;;;;;;;9.73;1.75;;;;;;;14.14;61.08;97198.31;2073145;28;20626;-67
2022/09/20 09:11:08;;;;;;;8.90;1.95;;;;;;;15.12;59.72;97192.38;2071574;28;20226;-66
2022/09/20 09:12:18;;;;;;;6.75;1.30;;;;;;;15.95;57.86;97189.53;2071802;28;20205;-66
2022/09/20 09:13:31;;;;;;;7.20;1.75;;;;;;;15.79;57.69;97191.31;2073710;28;20226;-66
2022/09/20 09:16:01;;;;;;;6.68;1.42;;;;;;;17.38;53.22;97187.13;2075511;28;20202;-66
2022/09/20 09:17:08;;;;;;;5.63;1.30;;;;;;;16.90;53.66;97191.84;2074325;28;20202;-66
2022/09/20 09:18:10;;;;;;;7.47;1.80;;;;;;;16.51;54.12;97198.63;2082749;28;20208;-66
2022/09/20 09:19:41;;;;;;;4.65;1.05;;;;;;;16.40;54.54;97196.63;2080996;28;20247;-66
2022/09/20 09:20:45;;;;;;;7.72;1.50;;;;;;;16.48;55.20;97194.34;2074588;28;20281;-66
2022/09/20 09:21:46;;;;;;;9.65;1.83;;;;;;;17.41;53.48;97192.22;2074095;28;20270;-67
2022/09/20 09:23:10;;;;;;;11.32;2.38;;;;;;;17.51;52.77;97202.16;2072952;28;20631;-66
2022/09/20 09:24:18;;;;;;;7.13;1.50;;;;;;;16.82;54.07;97194.97;2073667;28;20237;-66
2022/09/20 09:25:33;;;;;;;11.90;1.40;;;;;;;16.17;54.36;97190.91;2067276;28;20199;-66
2022/09/20 09:26:37;;;;;;;17.02;2.17;;;;;;;15.59;56.27;97171.38;2069908;28;20285;-67
2022/09/20 09:28:11;;;;;;;9.70;1.55;;;;;;;15.90;56.51;97199.50;2076374;28;20195;-66
2022/09/20 09:29:16;;;;;;;7.93;1.60;;;;;;;16.27;55.53;97197.34;2066925;28;20203;-67
2022/09/20 09:30:24;;;;;;;16.13;1.70;;;;;;;16.53;54.12;97192.31;2068634;28;20289;-66
2022/09/20 09:31:26;;;;;;;11.68;2.05;;;;;;;16.64;54.03;97197.78;2068328;28;20710;-66
2022/09/20 09:32:31;;;;;;;7.50;1.52;;;;;;;16.54;54.31;97185.25;2067608;28;20213;-66
2022/09/20 09:33:33;;;;;;;5.70;1.83;;;;;;;16.26;54.92;97187.72;2068454;28;20678;-68
2022/09/20 09:34:37;;;;;;;9.82;1.20;;;;;;;16.22;54.65;97190.66;2068099;28;20218;-66
2022/09/20 09:35:39;;;;;;;13.45;1.70;;;;;;;17.59;52.59;97192.81;2065157;28;20262;-66
2022/09/20 09:36:43;;;;;;;14.25;1.48;;;;;;;17.95;50.55;97180.84;2068224;28;20321;-66
2022/09/20 09:37:59;;;;;;;14.07;1.95;;;;;;;19.45;46.70;97190.03;2075628;28;20194;-66
2022/09/20 09:39:21;;;;;;;13.32;1.98;;;;;;;19.34;46.44;97188.19;2073786;28;20641;-66
2022/09/20 09:40:23;;;;;;;11.73;2.08;;;;;;;19.68;45.85;97164.53;2068249;28;20714;-66
2022/09/20 09:41:32;;;;;;;6.43;1.92;;;;;;;19.32;46.35;97196.22;2067987;28;20589;-66
2022/09/20 09:42:34;;;;;;;10.98;1.48;;;;;;;19.94;44.23;97183.00;2069412;28;20318;-66
2022/09/20 09:43:39;;;;;;;7.20;1.20;;;;;;;20.13;43.40;97185.13;2070635;28;20290;-66
2022/09/20 09:44:40;;;;;;;5.35;1.65;;;;;;;19.10;44.74;97191.63;2068905;28;20305;-66
2022/09/20 09:45:42;;;;;;;10.43;1.45;;;;;;;19.04;45.74;97184.09;2068270;28;20236;-66
2022/09/20 09:46:43;;;;;;;6.22;1.80;;;;;;;19.49;45.21;97187.09;2067219;28;20320;-66
2022/09/20 09:47:45;;;;;;;13.25;1.63;;;;;;;18.69;45.84;97185.59;2067625;28;20684;-66
2022/09/20 09:49:03;;;;;;;9.75;1.90;;;;;;;18.25;47.39;97192.94;2067622;28;20218;-66
2022/09/20 09:50:21;;;;;;;5.07;1.08;;;;;;;16.90;50.55;97183.94;2040517;28;20715;-66
2022/09/20 09:51:22;;;;;;;7.43;1.42;;;;;;;15.79;51.00;97181.63;2054333;28;20671;-66
2022/09/20 09:52:26;;;;;;;5.45;1.35;;;;;;;16.86;49.84;97180.66;2060928;28;20284;-66
2022/09/20 09:53:28;;;;;;;6.07;1.10;;;;;;;18.10;46.94;97191.34;2055616;28;20270;-66
2022/09/20 09:54:59;;;;;;;9.98;1.10;;;;;;;17.44;47.17;97181.44;2055617;28;20320;-66
2022/09/20 10:02:03;;;;;;;6.20;1.20;;;;;;;15.40;53.00;97187.38;2089748;28;20539;-66
2022/09/20 10:03:32;;;;;;;7.35;1.70;;;;;;;17.75;48.77;97170.69;2090954;28;20212;-66
2022/09/20 10:04:37;;;;;;;10.68;1.75;;;;;;;17.69;48.76;97190.44;2079162;28;20309;-66
2022/09/20 10:06:09;;;;;;;3.75;1.20;;;;;;;16.42;50.97;97189.47;2072469;28;20246;-66
2022/09/20 10:07:26;;;;;;;8.75;2.00;;;;;;;15.80;52.70;97190.38;2071064;28;20269;-66
2022/09/20 10:08:48;;;;;;;5.97;1.40;;;;;;;15.98;54.01;97186.72;2074885;28;20290;-66
2022/09/20 10:10:03;;;;;;;10.07;1.50;;;;;;;17.03;51.81;97192.00;2073896;28;20264;-66
2022/09/20 10:11:19;;;;;;;9.63;2.58;;;;;;;18.66;47.90;97196.38;2076480;28;20193;-66
2022/09/20 10:12:38;;;;;;;3.97;1.40;;;;;;;19.90;43.04;97190.34;2073295;28;20592;-66
2022/09/20 10:14:04;;;;;;;8.65;1.20;;;;;;;20.76;42.99;97180.34;2073522;28;20321;-66
2022/09/20 10:15:34;;;;;;;9.82;1.45;;;;;;;20.66;42.44;97184.66;2073763;28;20313;-66
2022/09/20 10:16:57;;;;;;;5.70;1.50;;;;;;;20.12;43.18;97180.78;2074206;28;20235;-66
2022/09/20 10:18:23;;;;;;;6.43;1.58;;;;;;;19.46;44.27;97192.59;2075250;28;20203;-66
2022/09/20 10:19:54;;;;;;;8.80;1.92;;;;;;;18.21;46.76;97186.19;2071788;28;20350;-66
2022/09/20 10:31:34;;;;;;;4.27;1.97;;;;;;;14.28;58.05;97190.56;2062842;27;1288286;-66
2022/09/20 10:32:48;;;;;;;19.20;3.00;;;;;;;13.84;59.39;97193.66;2095275;28;20813;-66
2022/09/20 10:44:14;;;;;;;5.07;1.30;;;;;;;15.98;53.18;97176.19;2086100;28;20248;-66
2022/09/20 10:45:46;;;;;;;5.10;1.55;;;;;;;15.73;52.96;97176.72;2067892;28;20305;-66
2022/09/20 10:47:14;;;;;;;11.70;1.52;;;;;;;15.61;52.38;97187.97;2065433;28;20254;-66
2022/09/20 10:48:19;;;;;;;8.35;1.88;;;;;;;15.88;52.55;97182.91;2066372;28;20194;-66
2022/09/20 10:49:40;;;;;;;5.25;1.40;;;;;;;15.42;52.49;97177.59;2065602;28;20198;-66
2022/09/20 11:00:40;;;;;;;5.20;1.60;;;;;;;14.32;55.66;97188.63;2094402;28;21060;-66
2022/09/20 11:01:57;;;;;;;7.10;1.45;;;;;;;14.34;56.78;97192.88;2086977;28;20196;-66
2022/09/20 11:14:04;;;;;;;14.95;1.65;;;;;;;15.01;56.65;97202.63;2103873;28;20176;-66
2022/09/20 11:15:34;;;;;;;4.82;1.40;;;;;;;14.54;55.71;97199.75;2103448;28;20744;-66
2022/09/20 11:16:45;;;;;;;8.82;1.27;;;;;;;14.57;55.47;97198.75;2101046;28;20203;-66
2022/09/20 11:18:11;;;;;;;9.15;1.40;;;;;;;14.93;54.21;97189.03;2103515;28;20198;-66
2022/09/20 11:19:25;;;;;;;2.88;1.50;;;;;;;14.42;54.97;97199.53;2103571;28;20310;-66
2022/09/20 11:32:35;;;;;;;13.01;1.80;;;;;;;14.76;56.05;97201.28;4216844;27;1262646;-66
2022/09/20 11:33:52;;;;;;;10.38;2.47;;;;;;;14.84;56.05;97199.13;2117212;28;20425;-66
2022/09/20 11:34:58;;;;;;;9.50;1.95;;;;;;;14.94;56.13;97196.81;2108408;28;20272;-66
2022/09/20 11:42:02;;;;;;;7.37;1.47;;;;;;;14.70;53.86;97198.97;2051988;27;1536360;-66
2022/09/20 11:43:09;;;;;;;11.27;1.38;;;;;;;14.55;54.66;97205.88;2098927;28;20999;-66
2022/09/20 12:02:16;;;;;;;4.45;1.42;;;;;;;17.60;49.80;97189.22;2102534;28;20219;-66
2022/09/20 12:03:38;;;;;;;9.88;1.52;;;;;;;18.04;48.55;97186.44;2104948;27;21016;-67
2022/09/20 12:04:45;;;;;;;25.98;8.95;;;;;;;19.26;44.35;97170.19;2101099;28;20358;-68
2022/09/20 12:05:55;;;;;;;13.82;4.55;;;;;;;19.69;42.30;97169.75;2099655;28;20230;-67
2022/09/20 12:07:06;;;;;;;4.38;1.33;;;;;;;20.20;40.21;97179.25;2095401;28;20199;-68
2022/09/20 12:15:05;;;;;;;9.65;2.35;;;;;;;19.04;44.92;97169.06;2094938;27;20329;-68
2022/09/20 12:16:13;;;;;;;7.03;1.33;;;;;;;19.34;43.22;97162.53;2106900;28;20199;-67
2022/09/20 12:17:43;;;;;;;13.25;1.25;;;;;;;19.68;42.88;97170.69;2096333;28;20563;-68
2022/09/20 12:18:53;;;;;;;6.80;1.58;;;;;;;19.51;44.27;97160.47;2105226;28;20217;-67
2022/09/20 12:19:54;;;;;;;7.35;1.23;;;;;;;19.39;43.60;97167.53;2096439;27;20218;-67
2022/09/20 12:21:03;;;;;;;9.75;1.65;;;;;;;20.15;42.45;97139.00;2108941;28;20357;-68
2022/09/20 12:22:25;;;;;;;9.02;1.60;;;;;;;20.30;42.04;97159.97;2101212;28;20200;-68
2022/09/20 12:23:39;;;;;;;4.93;1.08;;;;;;;20.93;41.72;97164.94;2100171;28;20669;-68
2022/09/20 12:24:41;;;;;;;4.28;1.13;;;;;;;20.96;40.75;97165.53;2095718;27;20232;-68
2022/09/20 12:32:50;;;;;;;5.80;1.30;;;;;;;20.93;37.47;97152.50;2098307;28;20930;-67
2022/09/20 12:34:08;;;;;;;8.98;1.48;;;;;;;20.01;39.67;97149.75;2099333;28;20224;-68
2022/09/20 12:35:43;;;;;;;7.38;1.42;;;;;;;19.38;39.84;97145.47;2097244;28;20251;-68
2022/09/20 12:37:09;;;;;;;8.40;1.52;;;;;;;18.85;39.98;97144.84;2089708;28;20301;-67
2022/09/20 12:38:27;;;;;;;4.47;1.45;;;;;;;18.24;40.26;97154.25;2100295;28;20720;-68
2022/09/20 12:39:32;;;;;;;2.42;0.90;;;;;;;17.90;41.18;97147.69;2090514;27;20356;-68
2022/09/20 12:40:57;;;;;;;4.78;1.08;;;;;;;18.05;41.44;97138.78;2104558;28;20279;-68
2022/09/20 12:42:21;;;;;;;4.45;0.90;;;;;;;17.94;41.64;97154.50;2101682;28;20201;-68
2022/09/20 12:43:23;;;;;;;7.05;1.10;;;;;;;18.06;41.67;97143.13;2098786;28;20254;-68
2022/09/20 12:44:49;;;;;;;9.68;1.38;;;;;;;17.80;43.08;97160.66;2086816;28;20235;-68
2022/09/20 12:45:55;;;;;;;3.40;1.25;;;;;;;17.01;44.73;97156.94;2098544;28;20192;-68
2022/09/20 12:47:10;;;;;;;6.85;1.27;;;;;;;16.91;45.70;97159.28;2099071;28;20249;-68
2022/09/20 12:48:18;;;;;;;8.40;2.10;;;;;;;16.99;46.08;97154.41;2098419;28;20200;-68
2022/09/20 12:52:56;;;;;;;6.03;1.73;;;;;;;16.28;47.42;97135.81;2100891;28;21312;-68
2022/09/20 12:54:05;;;;;;;8.73;1.17;;;;;;;16.12;46.63;97158.72;2099090;28;20754;-68
2022/09/20 12:55:10;;;;;;;7.22;1.38;;;;;;;16.16;46.33;97149.69;2088205;28;20383;-68
2022/09/20 12:56:20;;;;;;;6.00;1.33;;;;;;;15.99;45.40;97154.19;2086586;28;20841;-68
2022/09/20 12:57:31;;;;;;;10.88;1.20;;;;;;;15.90;46.47;97149.44;2095768;28;20312;-68
2022/09/20 12:58:53;;;;;;;6.32;1.45;;;;;;;16.00;47.86;97147.97;2099539;28;20196;-68
2022/09/20 13:04:57;;;;;;;6.97;1.38;;;;;;;16.05;48.86;97152.97;2084335;28;20568;-67
2022/09/20 13:06:05;;;;;;;7.93;1.10;;;;;;;16.26;48.43;97147.38;2087292;28;20287;-69
2022/09/20 13:07:33;;;;;;;3.10;1.17;;;;;;;16.54;48.36;97149.19;2082236;28;20235;-69
2022/09/20 13:08:50;;;;;;;8.90;1.38;;;;;;;16.75;47.26;97149.66;2080720;28;20242;-69
2022/09/20 13:09:52;;;;;;;4.80;1.58;;;;;;;16.67;48.00;97151.06;2075902;28;20299;-69
2022/09/20 13:11:06;;;;;;;4.82;1.48;;;;;;;16.49;48.27;97149.47;2079490;28;21057;-69
2022/09/20 13:12:09;;;;;;;2.67;1.20;;;;;;;16.15;49.32;97142.72;2070384;28;20224;-69
2022/09/20 13:13:27;;;;;;;6.68;1.52;;;;;;;16.25;50.00;97148.31;2075407;28;20285;-69
2022/09/20 13:14:31;;;;;;;9.93;2.17;;;;;;;16.36;49.78;97148.50;2078431;28;20608;-69
2022/09/20 13:15:34;;;;;;;7.90;2.00;;;;;;;16.11;50.32;97141.22;2078320;28;20289;-69
2022/09/20 13:22:46;;;;;;;4.32;1.30;;;;;;;15.29;51.49;97151.13;2083497;28;20573;-69
2022/09/20 13:23:51;;;;;;;9.15;2.20;;;;;;;15.07;50.62;97162.84;2083609;28;20762;-69
2022/09/20 13:24:57;;;;;;;4.60;1.40;;;;;;;15.33;50.43;97150.88;2071853;28;20741;-69
2022/09/20 13:33:52;;;;;;;6.72;1.40;;;;;;;14.30;53.30;97169.50;2101449;27;20593;-67
2022/09/20 13:35:09;;;;;;;4.72;1.20;;;;;;;14.04;53.78;97169.03;2077876;28;20308;-67
2022/09/20 13:45:52;;;;;;;5.40;1.30;;;;;;;13.29;58.85;97174.34;2084550;28;20560;-67
2022/09/20 13:46:54;;;;;;;4.28;1.30;;;;;;;13.10;59.42;97163.88;2078988;28;20224;-67
2022/09/20 13:56:57;;;;;;;8.00;1.50;;;;;;;13.12;62.17;97177.78;2101085;27;20682;-68
2022/09/20 13:58:02;;;;;;;6.78;1.70;;;;;;;13.03;62.83;97171.19;2105843;28;20201;-68
2022/09/20 14:16:54;;;;;;;9.02;2.17;;;;;;;13.40;62.30;97155.53;2087590;28;20595;-66
2022/09/20 14:17:55;;;;;;;9.23;2.17;;;;;;;13.60;61.84;97172.06;2087220;28;20290;-66
2022/09/20 14:24:36;;;;;;;4.13;1.52;;;;;;;13.85;60.76;97162.09;2075449;28;20580;-66
2022/09/20 14:25:37;;;;;;;7.20;1.30;;;;;;;13.95;59.94;97164.25;2089875;28;20246;-66
2022/09/20 14:26:41;;;;;;;9.43;1.80;;;;;;;13.69;59.90;97164.63;2083073;28;20290;-66
2022/09/20 14:27:42;;;;;;;6.53;1.88;;;;;;;13.78;59.92;97157.22;2081224;28;20662;-68
2022/09/20 14:28:45;;;;;;;6.18;1.45;;;;;;;14.00;59.39;97167.50;2078727;28;20742;-68
2022/09/20 14:29:51;;;;;;;7.85;1.83;;;;;;;13.99;58.25;97164.03;2069966;28;20292;-68
2022/09/20 14:31:11;;;;;;;6.43;1.80;;;;;;;14.40;58.03;97160.22;2085317;28;20351;-68
2022/09/20 14:32:16;;;;;;;9.13;2.10;;;;;;;14.52;56.85;97163.97;2080754;28;20290;-68
2022/09/20 14:33:19;;;;;;;9.88;2.75;;;;;;;14.22;56.10;97154.13;2081250;28;20837;-68
2022/09/20 14:34:21;;;;;;;4.88;1.30;;;;;;;14.52;55.15;97148.19;2072272;28;21020;-68
2022/09/20 14:35:22;;;;;;;4.75;1.10;;;;;;;15.77;53.27;97166.84;2085132;28;20354;-68
2022/09/20 14:48:05;;;;;;;3.55;1.30;;;;;;;18.23;44.25;97162.28;2083319;28;20783;-68
2022/09/20 14:49:24;;;;;;;5.80;1.88;;;;;;;19.04;43.40;97157.66;2072763;28;20192;-68
2022/09/20 14:50:38;;;;;;;6.15;1.70;;;;;;;18.94;42.70;97154.78;2082162;28;20821;-68
2022/09/20 14:51:39;;;;;;;8.48;2.10;;;;;;;19.03;42.43;97150.66;2082944;28;20203;-68
2022/09/20 14:52:42;;;;;;;6.22;1.85;;;;;;;18.20;43.87;97158.06;2084021;28;20283;-68
2022/09/20 14:53:46;;;;;;;4.07;1.55;;;;;;;17.99;44.78;97162.13;2085745;28;20227;-68
2022/09/20 14:55:15;;;;;;;10.82;1.80;;;;;;;18.71;43.83;97151.09;2075592;28;20330;-68
2022/09/20 14:56:31;;;;;;;4.00;1.55;;;;;;;18.38;43.86;97152.47;2088924;28;20196;-68
2022/09/20 14:57:32;;;;;;;5.60;1.30;;;;;;;18.89;43.57;97159.53;2082511;28;20290;-67
2022/09/20 14:59:04;;;;;;;5.15;1.33;;;;;;;18.59;44.51;97156.28;2081502;28;20224;-67
2022/09/20 15:07:00;;;;;;;4.65;1.10;;;;;;;18.80;43.89;97154.91;2084248;28;20180;-68
2022/09/20 15:08:02;;;;;;;3.60;1.60;;;;;;;18.93;43.53;97146.03;2084019;28;20810;-68
2022/09/20 15:09:03;;;;;;;3.47;1.75;;;;;;;18.56;45.39;97158.28;2084297;28;20288;-67
2022/09/20 15:10:10;;;;;;;4.97;1.20;;;;;;;17.62;46.00;97153.03;2079102;28;20235;-68
2022/09/20 15:11:17;;;;;;;5.75;1.00;;;;;;;17.31;48.08;97162.06;2086213;28;20283;-68
2022/09/20 15:19:04;;;;;;;4.47;1.40;;;;;;;15.24;50.52;97155.81;2082820;28;20266;-68
2022/09/20 15:24:43;;;;;;;8.65;1.60;;;;;;;15.77;50.92;97146.66;2084901;28;20794;-65
2022/09/20 15:25:48;;;;;;;12.02;1.35;;;;;;;16.48;48.81;97153.06;2097017;28;20203;-66
2022/09/20 15:26:49;;;;;;;4.50;1.33;;;;;;;16.93;48.04;97162.69;2088031;28;20391;-66
2022/09/20 15:27:50;;;;;;;4.25;1.30;;;;;;;17.43;47.03;97150.72;2080438;28;20362;-66
2022/09/20 15:28:52;;;;;;;6.90;1.85;;;;;;;17.44;46.68;97149.75;2081144;28;20682;-66
2022/09/20 15:29:54;;;;;;;6.65;1.80;;;;;;;17.77;45.82;97148.50;2085460;28;20615;-66
2022/09/20 15:30:56;;;;;;;9.13;1.70;;;;;;;17.37;46.22;97155.53;2097347;28;20218;-66
2022/09/20 15:31:57;;;;;;;5.40;1.85;;;;;;;17.00;47.11;97144.69;2083858;28;20280;-66
2022/09/20 15:32:59;;;;;;;8.25;2.00;;;;;;;17.88;46.67;97155.75;2081805;28;20289;-68
2022/09/20 15:34:05;;;;;;;3.40;1.58;;;;;;;18.04;45.70;97152.97;2082597;28;20197;-68
2022/09/20 15:35:08;;;;;;;7.45;2.53;;;;;;;18.24;45.21;97156.06;2088600;28;20273;-68
2022/09/20 15:36:09;;;;;;;7.05;1.65;;;;;;;18.44;45.46;97155.53;2097885;28;20722;-68
2022/09/20 15:37:11;;;;;;;4.95;1.58;;;;;;;17.76;46.74;97156.53;2081243;28;20632;-68
2022/09/20 15:38:15;;;;;;;4.32;1.27;;;;;;;18.40;45.33;97151.41;2080247;28;20240;-68
2022/09/20 15:39:17;;;;;;;4.57;1.20;;;;;;;18.09;45.47;97137.66;2074217;28;20232;-68
2022/09/20 15:40:18;;;;;;;4.68;1.40;;;;;;;18.49;45.16;97151.75;2096964;28;20717;-68
2022/09/20 15:41:20;;;;;;;5.10;1.80;;;;;;;18.80;45.12;97155.72;2094449;28;20196;-68
2022/09/20 15:49:05;;;;;;;8.70;3.13;;;;;;;18.00;45.46;97138.25;2078787;28;20541;-68
2022/09/20 15:50:07;;;;;;;7.82;2.00;;;;;;;17.34;46.42;97132.81;2079393;28;20328;-68
2022/09/20 15:51:11;;;;;;;8.73;3.15;;;;;;;16.91;47.84;97139.06;2083236;28;20201;-68
2022/09/20 15:52:12;;;;;;;11.48;4.03;;;;;;;16.76;48.68;97135.53;2081008;28;20208;-69
2022/09/20 15:53:14;;;;;;;7.20;2.22;;;;;;;15.96;49.84;97148.22;2086520;28;20201;-68
2022/09/20 15:54:15;;;;;;;5.60;1.67;;;;;;;15.55;50.96;97146.19;2077677;28;20220;-68
2022/09/20 15:55:18;;;;;;;3.88;1.40;;;;;;;15.39;50.94;97144.44;2095765;28;20837;-68
2022/09/20 15:56:20;;;;;;;7.18;2.28;;;;;;;15.09;52.42;97133.81;2089964;28;20902;-69
2022/09/20 15:57:22;;;;;;;5.88;2.10;;;;;;;14.78;51.67;97109.19;2081955;28;20279;-68
2022/09/20 15:58:24;;;;;;;7.38;2.42;;;;;;;15.10;51.93;97141.63;2081967;28;20236;-68
2022/09/20 16:05:58;;;;;;;5.03;1.85;;;;;;;15.42;51.42;97144.25;2087578;28;20635;-66
2022/09/20 16:07:05;;;;;;;7.65;3.72;;;;;;;15.23;51.81;97146.22;2086328;28;20203;-66
2022/09/20 16:08:07;;;;;;;4.15;1.80;;;;;;;15.63;51.07;97149.22;2087454;28;20323;-65
2022/09/20 16:09:08;;;;;;;9.23;3.70;;;;;;;15.34;51.48;97149.09;2078202;28;20291;-66
2022/09/20 16:10:10;;;;;;;8.98;3.28;;;;;;;15.16;51.63;97132.53;2081768;28;20827;-66
2022/09/20 16:11:13;;;;;;;3.35;1.83;;;;;;;15.56;51.62;97140.81;2081973;28;20198;-68
2022/09/20 16:12:24;;;;;;;10.38;3.25;;;;;;;15.05;51.48;97148.91;2081249;28;20213;-68
2022/09/20 16:21:20;;;;;;;4.57;1.70;;;;;;;15.88;51.29;97155.75;2094133;27;20563;-67
2022/09/20 16:22:22;;;;;;;5.30;1.60;;;;;;;15.72;50.62;97156.59;2088727;28;20204;-67
2022/09/20 16:23:23;;;;;;;5.20;1.77;;;;;;;15.29;52.47;97154.59;2089584;28;20258;-67
2022/09/20 16:24:29;;;;;;;5.57;2.10;;;;;;;14.97;53.55;97154.59;2064584;28;20209;-68
2022/09/20 16:25:31;;;;;;;6.05;2.20;;;;;;;15.12;53.42;97160.81;2063268;28;20286;-67
2022/09/20 16:34:27;;;;;;;4.82;1.83;;;;;;;14.15;56.84;97164.09;2079498;28;20563;-65
2022/09/20 16:35:28;;;;;;;6.80;1.75;;;;;;;14.28;56.52;97166.09;2087848;28;20206;-65
2022/09/20 16:36:31;;;;;;;8.80;2.75;;;;;;;14.65;55.54;97161.56;2089399;28;20203;-65
2022/09/20 16:37:34;;;;;;;6.65;2.58;;;;;;;14.52;55.17;97161.34;2081073;28;20235;-65
2022/09/20 16:38:38;;;;;;;7.45;2.35;;;;;;;14.46;55.17;97132.75;2078371;28;20200;-65
2022/09/20 16:39:40;;;;;;;9.15;2.88;;;;;;;14.71;55.37;97174.41;2081457;28;20225;-66
2022/09/20 16:40:42;;;;;;;13.25;2.60;;;;;;;14.61;55.43;97173.16;2079248;28;20296;-66
2022/09/20 16:41:47;;;;;;;12.82;2.53;;;;;;;14.16;56.67;97163.16;2081336;28;20197;-66
